createdAt,value
2022-12-23T00:04:07.357Z,65.07
2022-12-23T00:09:10.262Z,65.09
2022-12-23T00:14:31.330Z,65.34
2022-12-23T00:19:34.154Z,64.93
2022-12-23T00:24:36.907Z,65.76
2022-12-23T00:29:39.748Z,67.37
2022-12-23T00:34:42.549Z,67.95
2022-12-23T00:40:06.967Z,67.71
2022-12-23T00:45:16.284Z,68.10
2022-12-23T00:50:19.152Z,67.72
2022-12-23T00:55:22.058Z,67.33
2022-12-23T01:00:45.337Z,67.33
2022-12-23T01:05:48.192Z,67.17
2022-12-23T01:10:50.992Z,66.91
2022-12-23T01:15:59.219Z,67.33
2022-12-23T01:21:06.888Z,67.44
2022-12-23T01:26:10.789Z,67.11
2022-12-23T01:31:13.772Z,67.01
2022-12-23T01:36:16.692Z,67.55
2022-12-23T01:41:41.369Z,67.86
2022-12-23T01:46:44.193Z,67.92
2022-12-23T01:51:47.392Z,67.91
2022-12-23T01:56:50.172Z,67.67
2022-12-23T02:02:11.753Z,67.45
2022-12-23T02:07:33.559Z,67.20
2022-12-23T02:13:02.492Z,67.26
2022-12-23T02:18:14.386Z,67.19
2022-12-23T02:23:54.782Z,67.39
2022-12-23T02:29:28.307Z,67.01
2022-12-23T02:34:58.946Z,66.79
2022-12-23T02:40:35.385Z,66.64
2022-12-23T02:45:46.348Z,66.55
2022-12-23T02:50:53.503Z,66.46
2022-12-23T02:55:59.289Z,66.36
2022-12-23T03:01:03.455Z,66.19
2022-12-23T03:06:17.801Z,66.07
2022-12-23T03:11:20.772Z,65.93
2022-12-23T03:17:04.624Z,66.01
2022-12-23T03:22:25.267Z,66.12
2022-12-23T03:27:36.204Z,66.19
2022-12-23T03:33:08.012Z,66.39
2022-12-23T03:38:14.092Z,66.21
2022-12-23T03:43:30.707Z,66.34
2022-12-23T03:48:38.836Z,66.81
2022-12-23T03:53:53.009Z,66.72
2022-12-23T03:59:09.226Z,66.90
2022-12-23T04:04:46.035Z,67.27
2022-12-23T04:09:51.272Z,67.78
2022-12-23T04:14:54.049Z,67.87
2022-12-23T04:19:57.013Z,67.64
2022-12-23T04:24:59.795Z,67.31
2022-12-23T04:30:02.752Z,67.10
2022-12-23T04:35:06.120Z,67.34
2022-12-23T04:40:09.232Z,67.37
2022-12-23T04:45:12.080Z,67.57
2022-12-23T04:50:17.762Z,67.18
2022-12-23T04:55:20.592Z,66.94
2022-12-23T05:00:23.499Z,66.94
2022-12-23T05:05:26.312Z,67.27
2022-12-23T05:10:29.505Z,67.36
2022-12-23T05:15:33.165Z,67.03
2022-12-23T05:20:36.034Z,66.97
2022-12-23T05:25:39.877Z,67.12
2022-12-23T05:30:42.706Z,67.02
2022-12-23T05:35:45.556Z,66.68
2022-12-23T05:40:49.037Z,66.26
2022-12-23T05:45:52.347Z,65.93
2022-12-23T05:50:55.178Z,65.91
2022-12-23T05:55:57.992Z,65.91
2022-12-23T06:01:03.072Z,66.05
2022-12-23T06:06:06.302Z,66.76
2022-12-23T06:11:09.164Z,66.99
2022-12-23T06:16:12.228Z,66.69
2022-12-23T06:21:15.073Z,67.00
2022-12-23T06:26:18.014Z,67.31
2022-12-23T06:31:20.835Z,67.37
2022-12-23T06:36:23.742Z,66.99
2022-12-23T06:41:26.565Z,67.04
2022-12-23T06:46:29.509Z,67.46
2022-12-23T06:51:32.364Z,67.89
2022-12-23T06:56:35.317Z,67.52
2022-12-23T07:01:38.235Z,67.75
2022-12-23T07:06:41.217Z,67.74
2022-12-23T07:11:44.054Z,67.79
2022-12-23T07:16:46.957Z,67.66
2022-12-23T07:21:50.261Z,67.61
2022-12-23T07:26:53.070Z,67.74
2022-12-23T07:31:56.715Z,67.39
2022-12-23T07:36:59.544Z,67.36
2022-12-23T07:42:42.914Z,67.72
2022-12-23T07:47:25.390Z,68.03
2022-12-23T07:52:29.030Z,67.78
2022-12-23T07:57:37.813Z,67.31
2022-12-23T08:02:41.937Z,67.01
2022-12-23T08:07:50.016Z,67.12
2022-12-23T08:12:53.032Z,67.44
2022-12-23T08:17:56.531Z,67.59
2022-12-23T08:22:59.387Z,66.76
2022-12-23T08:28:02.219Z,66.57
2022-12-23T08:33:05.306Z,66.86
2022-12-23T08:38:08.134Z,67.14
2022-12-23T08:43:11.022Z,66.88
2022-12-23T08:48:14.364Z,66.11
2022-12-23T08:53:17.206Z,66.16
2022-12-23T08:58:20.254Z,66.25
2022-12-23T09:03:23.261Z,66.38
2022-12-23T09:08:26.247Z,65.47
2022-12-23T09:13:35.264Z,65.17
2022-12-23T09:18:39.230Z,65.94
2022-12-23T09:23:42.085Z,66.01
2022-12-23T09:28:44.933Z,66.40
2022-12-23T09:33:49.781Z,65.87
2022-12-23T09:38:57.392Z,65.40
2022-12-23T09:44:12.880Z,65.89
2022-12-23T09:49:18.809Z,65.89
2022-12-23T09:54:24.593Z,66.16
2022-12-23T10:00:15.699Z,66.03
2022-12-23T10:05:24.335Z,65.59
2022-12-23T10:10:40.368Z,65.11
2022-12-23T10:15:47.862Z,66.38
2022-12-23T10:21:00.025Z,66.37
2022-12-23T10:26:11.552Z,66.45
2022-12-23T10:31:40.996Z,65.93
2022-12-23T10:36:49.293Z,65.35
2022-12-23T10:42:16.981Z,65.61
2022-12-23T10:48:13.610Z,66.01
2022-12-23T10:53:43.329Z,66.60
2022-12-23T10:58:47.153Z,66.67
2022-12-23T11:03:56.168Z,66.56
2022-12-23T11:09:02.568Z,66.55
2022-12-23T11:14:05.387Z,66.72
2022-12-23T11:19:16.082Z,67.16
2022-12-23T11:24:22.231Z,66.00
2022-12-23T11:29:38.396Z,65.95
2022-12-23T11:34:45.839Z,64.48
2022-12-23T11:39:49.444Z,62.76
2022-12-23T11:44:55.077Z,60.94
2022-12-23T11:50:22.037Z,58.66
2022-12-23T11:55:29.874Z,64.07
2022-12-23T12:00:41.507Z,62.53
2022-12-23T12:05:51.560Z,61.48
2022-12-23T12:11:02.701Z,61.86
2022-12-23T12:16:42.206Z,61.82
2022-12-23T12:21:49.469Z,61.44
2022-12-23T12:26:57.045Z,58.55
2022-12-23T12:32:01.627Z,63.15
2022-12-23T12:37:13.458Z,64.01
2022-12-23T12:42:24.855Z,61.27
2022-12-23T12:47:53.804Z,60.22
2022-12-23T12:53:09.677Z,60.39
2022-12-23T12:58:19.899Z,60.17
2022-12-23T13:03:34.522Z,58.87
2022-12-23T13:08:52.893Z,59.80
2022-12-23T13:14:14.325Z,68.17
2022-12-23T13:19:36.967Z,64.26
2022-12-23T13:25:07.848Z,61.31
2022-12-23T13:30:20.249Z,61.05
2022-12-23T13:35:33.703Z,59.83
2022-12-23T13:40:48.252Z,60.83
2022-12-23T13:45:54.522Z,61.44
2022-12-23T13:51:36.330Z,61.41
2022-12-23T13:56:47.749Z,61.71
2022-12-23T14:01:52.712Z,62.01
2022-12-23T14:07:02.487Z,61.48
2022-12-23T14:12:17.260Z,60.55
2022-12-23T14:17:34.227Z,60.64
2022-12-23T14:22:55.035Z,60.68
2022-12-23T14:28:39.506Z,60.67
2022-12-23T14:33:48.410Z,60.64
2022-12-23T14:39:12.800Z,61.32
2022-12-23T14:44:38.284Z,61.31
2022-12-23T14:49:44.301Z,60.97
2022-12-23T14:55:13.247Z,60.30
2022-12-23T15:00:11.495Z,59.79
2022-12-23T15:05:14.405Z,58.44
2022-12-23T15:10:26.187Z,64.97
2022-12-23T15:15:30.777Z,66.55
2022-12-23T15:20:35.327Z,62.19
2022-12-23T15:25:46.053Z,60.74
2022-12-23T15:30:52.948Z,60.86
2022-12-23T15:35:57.253Z,61.10
2022-12-23T15:41:19.609Z,61.37
2022-12-23T15:46:29.760Z,62.30
2022-12-23T15:52:05.625Z,62.02
2022-12-23T15:57:01.522Z,62.12
2022-12-23T16:02:32.628Z,62.25
2022-12-23T16:07:41.425Z,63.16
2022-12-23T16:12:44.925Z,63.62
2022-12-23T16:17:47.829Z,64.02
2022-12-23T16:22:54.132Z,64.26
2022-12-23T16:28:02.174Z,64.17
2022-12-23T16:33:43.801Z,64.44
2022-12-23T16:38:48.050Z,64.62
2022-12-23T16:43:52.759Z,64.34
2022-12-23T16:48:59.735Z,64.44
2022-12-23T16:54:02.589Z,64.38
2022-12-23T16:59:05.544Z,64.17
2022-12-23T17:04:09.217Z,64.14
2022-12-23T17:09:12.569Z,64.41
2022-12-23T17:14:21.892Z,64.60
2022-12-23T17:19:29.034Z,64.63
2022-12-23T17:24:32.640Z,64.49
2022-12-23T17:29:35.604Z,64.15
2022-12-23T17:34:38.775Z,64.15
2022-12-23T17:39:43.283Z,64.65
2022-12-23T17:44:47.462Z,64.99
2022-12-23T17:49:50.538Z,65.36
2022-12-23T17:54:53.565Z,65.53
2022-12-23T17:59:56.963Z,65.07
2022-12-23T18:04:59.796Z,65.12
2022-12-23T18:10:03.081Z,65.11
2022-12-23T18:15:07.630Z,65.28
2022-12-23T18:20:19.118Z,65.40
2022-12-23T18:25:28.401Z,65.32
2022-12-23T18:30:31.351Z,65.50
2022-12-23T18:35:45.421Z,65.81
2022-12-23T18:40:49.845Z,65.71
2022-12-23T18:45:53.967Z,65.59
2022-12-23T18:50:57.111Z,65.54
2022-12-23T18:56:00.068Z,65.85
2022-12-23T19:01:03.042Z,65.68
2022-12-23T19:06:08.201Z,65.74
2022-12-23T19:11:20.729Z,66.06
2022-12-23T19:16:23.791Z,66.09
2022-12-23T19:21:26.678Z,66.06
2022-12-23T19:26:29.486Z,65.98
2022-12-23T19:31:34.158Z,65.98
2022-12-23T19:36:37.357Z,66.01
2022-12-23T19:41:40.217Z,66.05
2022-12-23T19:46:43.376Z,65.18
2022-12-23T19:51:46.457Z,65.56
2022-12-23T19:56:51.189Z,65.95
2022-12-23T20:01:54.187Z,66.21
2022-12-23T20:06:57.014Z,66.22
2022-12-23T20:11:59.817Z,66.38
2022-12-23T20:17:03.195Z,65.95
2022-12-23T20:22:06.046Z,65.73
2022-12-23T20:27:11.691Z,65.80
2022-12-23T20:32:16.053Z,65.98
2022-12-23T20:37:18.888Z,65.94
2022-12-23T20:42:21.687Z,65.57
2022-12-23T20:47:24.463Z,65.17
2022-12-23T20:52:27.309Z,64.85
2022-12-23T20:57:31.711Z,65.01
2022-12-23T21:02:34.549Z,63.88
2022-12-23T21:07:37.421Z,64.60
2022-12-23T21:12:40.187Z,61.75
2022-12-23T21:17:42.990Z,62.27
2022-12-23T21:22:46.304Z,62.66
2022-12-23T21:27:50.788Z,62.45
2022-12-23T21:32:53.642Z,61.22
2022-12-23T21:37:56.472Z,56.27
2022-12-23T21:43:02.769Z,59.58
2022-12-23T21:48:08.380Z,66.32
2022-12-23T21:53:11.179Z,64.69
2022-12-23T21:58:14.041Z,62.28
2022-12-23T22:03:16.851Z,60.48
2022-12-23T22:08:19.650Z,56.73
2022-12-23T22:13:22.402Z,58.14
2022-12-23T22:18:25.174Z,60.50
2022-12-23T22:23:28.327Z,67.72
2022-12-23T22:28:33.451Z,65.98
2022-12-23T22:33:36.205Z,63.63
2022-12-23T22:38:39.237Z,62.06
2022-12-23T22:43:42.069Z,61.80
2022-12-23T22:48:44.963Z,61.07
2022-12-23T22:53:48.431Z,60.47
2022-12-23T22:58:52.668Z,57.37
2022-12-23T23:03:57.767Z,56.31
2022-12-23T23:09:01.116Z,58.23
2022-12-23T23:14:04.121Z,66.05
2022-12-23T23:19:09.233Z,67.35
2022-12-23T23:24:12.507Z,63.49
2022-12-23T23:29:15.826Z,61.21
2022-12-23T23:34:18.676Z,58.76
2022-12-23T23:39:21.511Z,57.56
2022-12-23T23:44:24.308Z,60.10
2022-12-23T23:49:27.135Z,67.42
2022-12-23T23:54:29.941Z,66.61
2022-12-23T23:59:32.720Z,62.94
